Etzikom, Canada
Current Conditions -  °F | °C
As of 11:00 AM on Sunday 23 Nov 2014 (Local Time) from CYXH Reporting Station
Few Clouds Few Clouds  
Wind Chill: 25°   Ceiling: Unl
Heat Index: 32°   Visibility: 30mi
Dew Point: 23°   Wind: 8mph
Humidity: 69%   Direction: 240°WSW
Pressure: 29.88"   Gusts: NA
Location:  49.48°N, 111.1°W
Report Text: CYXH 231800Z 24007KT 30SM FEW090 FEW270 00/M05 A2988 RMK AC1CI1 SLP144
Loading
Personal Weather Stations






























Interactive Weather Map New forecast layout! Learn more

10-Day Weather Forecast

Advertisements
Track Severe Weather on mobile